Terminal Aerodrome Forecast
Issued by NWS

Current Version | Previous Version | Text Only | Print | Product List | Glossary On
Versions: 1 2 3 4 5 6 7 8 9 10 11 12 13 14 15 16 17
000
FTUS44 KLIX 282332
TAFHUM
TAF
KHUM 282332Z 2900/2924 08004KT P6SM SCT250
     FM291300 05006KT P6SM VCSH SCT040
      TEMPO 2916/2920 VRB22KT 2SM TSRA BKN025CB
     FM292000 07009KT P6SM OVC130=

USA.gov is the U.S. government's official web portal to all federal, state and local government web resources and services.